Time;durP1;ratioP1;P1;durP2;ratioP2;P2;SDS_P1;SDS_P2;PMS_P1;PMS_P2;Temp;Humidity;BMP_temperature;BMP_pressure;BME280_temperature;BME280_humidity;BME280_pressure;Samples;Min_cycle;Max_cycle;Signal;HPM_P1;HPM_P2
2023/05/16 00:01:00;;;;;;;9.15;5.53;;;;;;;;;;4994944;28;20026;-67
2023/05/16 00:03:26;;;;;;;7.05;5.88;;;;;;;;;;4994980;28;20487;-67
2023/05/16 00:05:53;;;;;;;7.32;5.28;;;;;;;;;;4995177;28;20033;-66
2023/05/16 00:08:19;;;;;;;9.23;5.45;;;;;;;;;;4994887;28;20038;-67
2023/05/16 00:10:45;;;;;;;11.93;5.38;;;;;;;;;;4995009;28;20031;-67
2023/05/16 00:13:12;;;;;;;7.70;5.25;;;;;;;;;;4994985;28;20044;-66
2023/05/16 00:15:38;;;;;;;12.05;6.32;;;;;;;;;;4994640;28;20061;-66
2023/05/16 00:18:05;;;;;;;8.93;5.97;;;;;;;;;;4994991;28;20030;-67
2023/05/16 00:20:31;;;;;;;8.35;5.57;;;;;;;;;;4994865;28;20029;-67
2023/05/16 00:23:00;;;;;;;7.15;5.70;;;;;;;;;;4994869;28;20038;-67
2023/05/16 00:25:27;;;;;;;7.47;5.13;;;;;;;;;;4994610;28;20034;-66
2023/05/16 00:27:53;;;;;;;7.60;5.55;;;;;;;;;;4994748;28;20018;-66
2023/05/16 00:30:20;;;;;;;8.30;5.32;;;;;;;;;;4994628;28;20038;-67
2023/05/16 00:32:46;;;;;;;8.93;5.45;;;;;;;;;;4994260;28;20521;-67
2023/05/16 00:35:12;;;;;;;7.15;5.63;;;;;;;;;;4994444;28;20056;-67
2023/05/16 00:37:39;;;;;;;6.57;5.68;;;;;;;;;;4994618;28;20032;-66
2023/05/16 00:40:05;;;;;;;6.57;5.85;;;;;;;;;;4994645;28;20023;-67
2023/05/16 00:42:32;;;;;;;9.95;5.68;;;;;;;;;;4994415;28;20022;-67
2023/05/16 00:44:58;;;;;;;8.20;5.53;;;;;;;;;;4994148;28;20034;-67
2023/05/16 00:47:25;;;;;;;4.97;4.47;;;;;;;;;;4994441;28;20030;-66
2023/05/16 00:49:51;;;;;;;6.90;5.00;;;;;;;;;;4993060;28;20041;-67
2023/05/16 00:52:17;;;;;;;9.65;5.55;;;;;;;;;;4994287;28;20032;-67
2023/05/16 00:54:44;;;;;;;10.65;5.25;;;;;;;;;;4994022;28;20522;-67
2023/05/16 00:57:10;;;;;;;7.90;5.53;;;;;;;;;;4994209;28;20026;-67
2023/05/16 00:59:37;;;;;;;8.77;5.78;;;;;;;;;;4993686;28;20402;-66
2023/05/16 01:02:03;;;;;;;10.02;5.93;;;;;;;;;;4993924;28;20467;-67
2023/05/16 01:04:30;;;;;;;7.43;5.63;;;;;;;;;;4994145;28;20034;-67
2023/05/16 01:06:56;;;;;;;7.38;5.60;;;;;;;;;;4994187;28;20030;-67
2023/05/16 01:09:23;;;;;;;6.90;5.75;;;;;;;;;;4993800;28;20041;-67
2023/05/16 01:11:49;;;;;;;9.40;5.88;;;;;;;;;;4993835;28;20489;-67
2023/05/16 01:14:26;;;;;;;9.75;6.30;;;;;;;;;;4993449;28;20141;-66
2023/05/16 01:16:58;;;;;;;6.60;5.22;;;;;;;;;;4993537;28;20028;-66
2023/05/16 01:19:28;;;;;;;7.85;6.00;;;;;;;;;;4993847;28;20176;-66
2023/05/16 01:22:04;;;;;;;6.53;5.53;;;;;;;;;;4993827;28;20030;-66
2023/05/16 01:24:36;;;;;;;6.30;5.60;;;;;;;;;;4993837;28;20018;-67
2023/05/16 01:27:04;;;;;;;7.07;5.50;;;;;;;;;;4993582;28;20072;-66
2023/05/16 01:29:31;;;;;;;9.05;5.95;;;;;;;;;;4993493;28;20376;-67
2023/05/16 01:31:57;;;;;;;12.27;6.07;;;;;;;;;;4993273;28;20053;-67
2023/05/16 01:34:24;;;;;;;9.23;6.60;;;;;;;;;;4993353;28;20093;-66
2023/05/16 01:36:57;;;;;;;10.13;6.45;;;;;;;;;;4993314;28;20021;-66
2023/05/16 01:39:45;;;;;;;12.75;6.65;;;;;;;;;;4992857;28;20046;-67
2023/05/16 01:42:15;;;;;;;10.43;5.68;;;;;;;;;;4992952;28;20038;-67
2023/05/16 01:44:45;;;;;;;8.37;6.27;;;;;;;;;;4993474;28;20018;-67
2023/05/16 01:47:12;;;;;;;7.28;6.03;;;;;;;;;;4993249;28;20372;-66
2023/05/16 01:49:54;;;;;;;9.40;5.68;;;;;;;;;;5024605;28;20030;-66
2023/05/16 01:52:41;;;;;;;7.07;5.60;;;;;;;;;;4993214;28;20041;-66
2023/05/16 01:55:15;;;;;;;7.32;5.65;;;;;;;;;;4992844;28;20042;-67
2023/05/16 01:57:42;;;;;;;7.13;5.88;;;;;;;;;;5024421;28;20434;-66
2023/05/16 02:00:09;;;;;;;7.10;5.50;;;;;;;;;;4992887;28;20039;-66
2023/05/16 02:02:35;;;;;;;10.77;6.15;;;;;;;;;;4992794;28;20024;-66
2023/05/16 02:05:01;;;;;;;7.75;6.13;;;;;;;;;;4993195;28;20040;-67
2023/05/16 02:07:28;;;;;;;7.50;5.78;;;;;;;;;;4992836;28;20022;-67
2023/05/16 02:09:54;;;;;;;10.45;6.38;;;;;;;;;;4993197;28;20026;-66
2023/05/16 02:12:20;;;;;;;11.70;6.10;;;;;;;;;;4992616;28;20034;-67
2023/05/16 02:14:47;;;;;;;8.63;6.53;;;;;;;;;;4992986;28;20038;-67
2023/05/16 02:17:13;;;;;;;12.05;6.43;;;;;;;;;;4992856;28;20030;-67
2023/05/16 02:19:39;;;;;;;9.00;6.60;;;;;;;;;;4993108;28;20026;-66
2023/05/16 02:22:06;;;;;;;8.88;6.45;;;;;;;;;;4992631;28;20045;-67
2023/05/16 02:24:32;;;;;;;8.05;6.38;;;;;;;;;;4992791;28;20414;-67
2023/05/16 02:26:59;;;;;;;10.07;6.82;;;;;;;;;;4992372;28;20058;-67
2023/05/16 02:29:25;;;;;;;7.55;5.78;;;;;;;;;;4992725;28;20026;-66
2023/05/16 02:31:51;;;;;;;8.27;7.10;;;;;;;;;;4992518;28;20050;-66
2023/05/16 02:34:18;;;;;;;7.97;6.30;;;;;;;;;;4992732;28;20035;-68
2023/05/16 02:36:44;;;;;;;10.93;6.40;;;;;;;;;;4992486;28;20418;-69
2023/05/16 02:39:10;;;;;;;10.60;6.38;;;;;;;;;;4992497;28;20406;-69
2023/05/16 02:41:37;;;;;;;8.48;6.47;;;;;;;;;;4992619;28;20023;-69
2023/05/16 02:44:03;;;;;;;8.88;6.25;;;;;;;;;;4992546;28;20033;-68
2023/05/16 02:46:30;;;;;;;8.98;6.55;;;;;;;;;;4992684;28;20022;-68
2023/05/16 02:48:57;;;;;;;8.23;6.63;;;;;;;;;;4992564;28;20480;-68
2023/05/16 02:51:25;;;;;;;9.10;6.55;;;;;;;;;;4993099;28;20030;-68
2023/05/16 02:53:51;;;;;;;7.82;6.38;;;;;;;;;;4996184;28;20052;-69
2023/05/16 02:56:18;;;;;;;11.00;6.68;;;;;;;;;;4996480;28;20031;-68
2023/05/16 02:58:47;;;;;;;8.27;6.57;;;;;;;;;;4996348;28;20027;-68
2023/05/16 03:01:14;;;;;;;9.40;6.70;;;;;;;;;;4996287;28;20031;-69
2023/05/16 03:03:40;;;;;;;10.00;6.60;;;;;;;;;;4996199;28;20029;-68
2023/05/16 03:06:06;;;;;;;10.77;7.32;;;;;;;;;;4995977;28;20018;-69
2023/05/16 03:08:33;;;;;;;11.20;7.03;;;;;;;;;;4996014;28;20418;-69
2023/05/16 03:11:00;;;;;;;14.65;7.20;;;;;;;;;;4995899;28;20026;-69
2023/05/16 03:13:28;;;;;;;12.43;7.15;;;;;;;;;;4995994;28;20037;-69
2023/05/16 03:15:54;;;;;;;12.55;7.28;;;;;;;;;;4996004;28;20045;-69
2023/05/16 03:18:21;;;;;;;10.63;7.70;;;;;;;;;;4995891;28;20018;-68
2023/05/16 03:20:47;;;;;;;10.93;7.03;;;;;;;;;;4995770;28;20390;-68
2023/05/16 03:23:13;;;;;;;12.43;6.95;;;;;;;;;;4995749;28;20033;-68
2023/05/16 03:25:42;;;;;;;11.43;7.10;;;;;;;;;;4995817;28;20033;-68
2023/05/16 03:28:08;;;;;;;9.90;7.47;;;;;;;;;;4996013;28;20018;-69
2023/05/16 03:30:35;;;;;;;10.10;7.32;;;;;;;;;;4995763;28;20475;-68
2023/05/16 03:33:02;;;;;;;11.75;8.02;;;;;;;;;;4995592;28;20052;-68
2023/05/16 03:35:29;;;;;;;12.02;7.47;;;;;;;;;;4995523;28;20038;-69
2023/05/16 03:37:55;;;;;;;10.85;7.60;;;;;;;;;;4994203;28;20022;-69
2023/05/16 03:40:22;;;;;;;15.52;7.13;;;;;;;;;;4978121;28;20084;-69
2023/05/16 03:42:48;;;;;;;11.93;7.57;;;;;;;;;;4995458;28;20026;-68
2023/05/16 03:45:15;;;;;;;9.68;6.85;;;;;;;;;;4995841;28;20044;-68
2023/05/16 03:47:41;;;;;;;11.10;7.95;;;;;;;;;;4995516;28;20053;-68
2023/05/16 03:50:08;;;;;;;11.40;7.35;;;;;;;;;;4995330;28;20027;-68
2023/05/16 03:52:35;;;;;;;14.32;7.53;;;;;;;;;;4995389;28;20048;-68
2023/05/16 03:55:02;;;;;;;9.05;7.80;;;;;;;;;;4995143;28;20034;-68
2023/05/16 03:57:33;;;;;;;12.48;7.63;;;;;;;;;;4995158;28;20054;-69
2023/05/16 03:59:59;;;;;;;9.60;7.77;;;;;;;;;;4995348;28;20034;-69
2023/05/16 04:02:26;;;;;;;12.27;7.50;;;;;;;;;;4994909;28;20280;-68
2023/05/16 04:04:52;;;;;;;11.68;7.07;;;;;;;;;;4995138;28;20495;-68
2023/05/16 04:07:18;;;;;;;10.35;7.78;;;;;;;;;;4994928;28;20031;-69
2023/05/16 04:09:45;;;;;;;11.40;7.53;;;;;;;;;;4995036;28;20041;-68
2023/05/16 04:12:11;;;;;;;12.68;7.05;;;;;;;;;;4994978;28;20483;-68
2023/05/16 04:14:37;;;;;;;12.93;7.38;;;;;;;;;;4994817;28;20038;-68
2023/05/16 04:17:04;;;;;;;16.75;7.97;;;;;;;;;;4995163;28;20033;-68
2023/05/16 04:19:30;;;;;;;12.48;8.00;;;;;;;;;;4994804;28;20022;-68
2023/05/16 04:21:56;;;;;;;12.27;8.18;;;;;;;;;;4994574;28;20022;-68
2023/05/16 04:24:25;;;;;;;11.95;7.32;;;;;;;;;;4994908;28;20027;-69
2023/05/16 04:26:51;;;;;;;11.85;8.52;;;;;;;;;;4994499;28;20073;-68
2023/05/16 04:29:18;;;;;;;10.60;7.75;;;;;;;;;;4994882;28;20034;-69
2023/05/16 04:31:44;;;;;;;12.55;7.32;;;;;;;;;;4994610;28;20382;-68
2023/05/16 04:34:12;;;;;;;10.80;7.65;;;;;;;;;;4994418;28;20038;-68
2023/05/16 04:36:38;;;;;;;10.98;8.07;;;;;;;;;;4994401;28;20019;-68
2023/05/16 04:39:06;;;;;;;8.77;7.13;;;;;;;;;;4994432;28;20161;-69
2023/05/16 04:41:33;;;;;;;13.05;7.80;;;;;;;;;;4994405;28;20484;-68
2023/05/16 04:44:03;;;;;;;10.52;8.15;;;;;;;;;;4994524;28;20026;-68
2023/05/16 04:46:30;;;;;;;10.57;7.50;;;;;;;;;;4994245;28;20030;-68
2023/05/16 04:48:56;;;;;;;10.63;7.85;;;;;;;;;;4994231;28;20026;-69
2023/05/16 04:51:23;;;;;;;12.55;7.30;;;;;;;;;;4993872;28;20037;-68
2023/05/16 04:53:49;;;;;;;11.15;7.65;;;;;;;;;;4994087;28;20398;-69
2023/05/16 04:56:15;;;;;;;13.98;7.00;;;;;;;;;;4992901;28;20402;-68
2023/05/16 04:58:42;;;;;;;14.90;7.30;;;;;;;;;;4994011;28;20022;-68
2023/05/16 05:01:08;;;;;;;8.85;6.88;;;;;;;;;;4994022;28;20410;-69
2023/05/16 05:03:35;;;;;;;10.05;7.00;;;;;;;;;;4993903;28;20026;-69
2023/05/16 05:06:01;;;;;;;14.02;7.20;;;;;;;;;;4993968;28;20034;-69
2023/05/16 05:08:27;;;;;;;9.68;7.20;;;;;;;;;;4993908;28;20022;-68
2023/05/16 05:10:55;;;;;;;11.45;7.43;;;;;;;;;;4994054;28;20038;-69
2023/05/16 05:13:22;;;;;;;10.07;7.28;;;;;;;;;;4993660;28;20486;-68
2023/05/16 05:15:51;;;;;;;9.40;7.25;;;;;;;;;;4993376;28;20069;-69
2023/05/16 05:18:17;;;;;;;8.38;7.00;;;;;;;;;;4993791;28;20490;-68
2023/05/16 05:20:44;;;;;;;10.25;7.07;;;;;;;;;;4993384;28;20030;-69
2023/05/16 05:23:10;;;;;;;12.30;7.45;;;;;;;;;;4993871;28;20030;-68
2023/05/16 05:25:36;;;;;;;12.88;7.65;;;;;;;;;;4993679;28;20479;-68
2023/05/16 05:28:03;;;;;;;11.77;7.60;;;;;;;;;;4993795;28;20030;-69
2023/05/16 05:30:30;;;;;;;10.00;7.10;;;;;;;;;;4993563;28;20030;-68
2023/05/16 05:32:56;;;;;;;14.32;7.70;;;;;;;;;;4993271;28;20039;-68
2023/05/16 05:35:22;;;;;;;9.88;6.47;;;;;;;;;;4993159;28;20035;-69
2023/05/16 05:37:49;;;;;;;9.18;7.40;;;;;;;;;;4993585;28;20471;-69
2023/05/16 05:40:15;;;;;;;10.82;7.38;;;;;;;;;;4993470;28;20026;-69
2023/05/16 05:42:41;;;;;;;10.00;6.40;;;;;;;;;;4993313;28;20487;-68
2023/05/16 05:45:08;;;;;;;14.48;7.15;;;;;;;;;;4993619;28;20034;-68
2023/05/16 05:47:34;;;;;;;16.73;7.07;;;;;;;;;;4993207;28;20018;-68
2023/05/16 05:50:01;;;;;;;12.63;7.15;;;;;;;;;;5024371;28;20033;-68
2023/05/16 05:52:27;;;;;;;9.82;7.22;;;;;;;;;;4993129;28;20045;-69
2023/05/16 05:54:54;;;;;;;16.42;7.32;;;;;;;;;;4993128;28;20061;-69
2023/05/16 05:57:20;;;;;;;13.52;7.72;;;;;;;;;;4990431;28;20048;-69
2023/05/16 05:59:47;;;;;;;15.95;7.30;;;;;;;;;;4991241;28;20030;-69
2023/05/16 06:02:13;;;;;;;16.13;7.40;;;;;;;;;;4992341;28;20032;-69
2023/05/16 06:04:41;;;;;;;11.27;6.85;;;;;;;;;;4992552;28;20491;-69
2023/05/16 06:07:07;;;;;;;17.27;7.25;;;;;;;;;;4992484;28;20387;-66
2023/05/16 06:09:34;;;;;;;22.95;7.40;;;;;;;;;;4987817;28;20458;-67
2023/05/16 06:12:00;;;;;;;11.68;6.78;;;;;;;;;;4991098;28;20096;-67
2023/05/16 06:14:27;;;;;;;23.35;7.55;;;;;;;;;;4991826;28;20030;-67
2023/05/16 06:16:53;;;;;;;13.50;6.68;;;;;;;;;;4991906;28;20033;-67
2023/05/16 06:19:19;;;;;;;19.80;7.47;;;;;;;;;;4988405;28;20390;-67
2023/05/16 06:21:46;;;;;;;12.00;6.88;;;;;;;;;;4983395;28;20038;-67
2023/05/16 06:24:12;;;;;;;13.20;7.15;;;;;;;;;;4991550;28;20084;-67
2023/05/16 06:26:38;;;;;;;13.60;6.68;;;;;;;;;;4990587;28;20019;-67
2023/05/16 06:29:05;;;;;;;23.08;7.60;;;;;;;;;;4988644;28;20026;-67
2023/05/16 06:31:31;;;;;;;16.35;7.25;;;;;;;;;;4987400;28;20507;-67
2023/05/16 06:33:57;;;;;;;13.65;6.80;;;;;;;;;;5003935;28;20031;-67
2023/05/16 06:36:24;;;;;;;10.10;6.10;;;;;;;;;;5017539;28;20049;-67
2023/05/16 06:38:50;;;;;;;11.10;6.32;;;;;;;;;;4992119;28;20026;-67
2023/05/16 06:41:16;;;;;;;13.55;6.50;;;;;;;;;;4992258;28;20037;-67
2023/05/16 06:43:42;;;;;;;9.98;5.75;;;;;;;;;;4992136;28;20085;-67
2023/05/16 06:46:09;;;;;;;7.32;6.13;;;;;;;;;;4991903;28;20024;-67
2023/05/16 06:48:35;;;;;;;7.72;5.88;;;;;;;;;;4989240;28;20430;-69
2023/05/16 06:51:02;;;;;;;11.13;6.90;;;;;;;;;;4991715;28;20044;-67
2023/05/16 06:53:28;;;;;;;9.32;6.32;;;;;;;;;;4992539;28;20015;-67
2023/05/16 06:55:55;;;;;;;10.40;6.53;;;;;;;;;;4990738;28;20442;-67
2023/05/16 06:58:21;;;;;;;18.58;6.18;;;;;;;;;;4991851;28;20014;-67
2023/05/16 07:00:49;;;;;;;12.80;5.65;;;;;;;;;;4990905;28;20034;-67
2023/05/16 07:03:15;;;;;;;12.63;5.80;;;;;;;;;;4991872;28;20498;-67
2023/05/16 07:05:41;;;;;;;5.60;4.60;;;;;;;;;;4991998;28;20019;-67
2023/05/16 07:08:11;;;;;;;5.72;3.78;;;;;;;;;;4992044;28;20026;-67
2023/05/16 07:10:40;;;;;;;4.80;3.33;;;;;;;;;;4989542;28;20019;-67
2023/05/16 07:13:06;;;;;;;3.65;3.00;;;;;;;;;;4991830;28;20083;-67
2023/05/16 07:15:33;;;;;;;5.45;3.38;;;;;;;;;;4991038;28;20046;-67
2023/05/16 07:17:59;;;;;;;4.15;2.65;;;;;;;;;;4991980;28;20540;-67
2023/05/16 07:20:26;;;;;;;3.88;2.60;;;;;;;;;;4991858;28;20026;-67
2023/05/16 07:22:52;;;;;;;2.95;2.47;;;;;;;;;;4986156;28;20034;-67
2023/05/16 07:25:18;;;;;;;2.47;2.20;;;;;;;;;;4991263;28;20048;-67
2023/05/16 07:27:45;;;;;;;3.42;2.47;;;;;;;;;;4990912;28;20031;-67
2023/05/16 07:30:12;;;;;;;2.85;2.20;;;;;;;;;;4990847;28;20080;-67
2023/05/16 07:32:38;;;;;;;1.95;1.42;;;;;;;;;;4990377;28;20034;-67
2023/05/16 07:35:05;;;;;;;2.42;1.40;;;;;;;;;;4990037;28;20065;-67
2023/05/16 07:37:31;;;;;;;3.08;1.35;;;;;;;;;;4991579;28;20030;-67
2023/05/16 07:39:57;;;;;;;2.15;1.38;;;;;;;;;;4994590;28;20033;-67
2023/05/16 07:42:24;;;;;;;2.60;1.15;;;;;;;;;;4994413;28;20030;-67
2023/05/16 07:44:50;;;;;;;1.55;1.23;;;;;;;;;;4994135;28;20031;-67
2023/05/16 07:47:16;;;;;;;6.15;1.67;;;;;;;;;;4993943;28;20394;-66
2023/05/16 07:49:43;;;;;;;1.67;1.20;;;;;;;;;;4993940;28;20030;-67
2023/05/16 07:52:09;;;;;;;1.90;1.60;;;;;;;;;;4994258;28;20060;-67
2023/05/16 07:54:36;;;;;;;2.10;1.40;;;;;;;;;;4993115;28;20041;-67
2023/05/16 07:57:03;;;;;;;1.80;1.35;;;;;;;;;;4993782;28;20014;-67
2023/05/16 07:59:29;;;;;;;2.25;1.30;;;;;;;;;;4993535;28;20109;-67
2023/05/16 08:01:56;;;;;;;2.13;1.50;;;;;;;;;;4993789;28;20429;-67
2023/05/16 08:04:22;;;;;;;2.53;1.40;;;;;;;;;;4993935;28;20035;-67
2023/05/16 08:06:49;;;;;;;1.60;1.25;;;;;;;;;;4994193;28;20033;-67
2023/05/16 08:09:15;;;;;;;2.08;1.05;;;;;;;;;;4993912;28;20022;-67
2023/05/16 08:11:44;;;;;;;1.40;1.08;;;;;;;;;;4992915;28;20048;-67
2023/05/16 08:14:10;;;;;;;2.88;1.10;;;;;;;;;;4993466;28;20041;-67
2023/05/16 08:16:37;;;;;;;2.58;1.10;;;;;;;;;;4993516;28;20026;-67
2023/05/16 08:19:03;;;;;;;1.30;1.20;;;;;;;;;;4992820;28;20018;-67
2023/05/16 08:21:30;;;;;;;2.25;1.48;;;;;;;;;;4993526;28;20391;-67
2023/05/16 08:23:57;;;;;;;2.42;1.33;;;;;;;;;;4993456;28;20026;-67
2023/05/16 08:26:23;;;;;;;1.45;1.20;;;;;;;;;;4992905;28;20018;-67
2023/05/16 08:28:50;;;;;;;2.67;1.00;;;;;;;;;;4992870;28;20399;-67
2023/05/16 08:31:16;;;;;;;0.80;0.80;;;;;;;;;;4993349;28;20040;-67
2023/05/16 08:33:43;;;;;;;1.58;0.98;;;;;;;;;;4993250;28;20362;-67
2023/05/16 08:36:09;;;;;;;1.08;1.00;;;;;;;;;;4993202;28;20039;-67
2023/05/16 08:38:36;;;;;;;2.88;0.80;;;;;;;;;;4992136;28;20027;-67
2023/05/16 08:41:02;;;;;;;2.85;0.88;;;;;;;;;;4993155;28;20031;-67
2023/05/16 08:43:28;;;;;;;1.92;0.80;;;;;;;;;;4992807;28;20026;-67
2023/05/16 08:45:55;;;;;;;3.85;0.90;;;;;;;;;;4993333;28;20497;-67
2023/05/16 08:48:22;;;;;;;1.20;0.85;;;;;;;;;;4992139;28;20022;-67
2023/05/16 08:50:50;;;;;;;0.93;0.82;;;;;;;;;;4990598;28;20034;-67
2023/05/16 08:53:21;;;;;;;3.13;0.77;;;;;;;;;;4992994;28;20040;-67
2023/05/16 08:55:47;;;;;;;2.88;0.98;;;;;;;;;;4992764;28;20038;-66
2023/05/16 08:58:14;;;;;;;1.00;0.80;;;;;;;;;;4992535;28;20035;-66
2023/05/16 09:00:40;;;;;;;1.33;0.90;;;;;;;;;;4992751;28;20026;-67
2023/05/16 09:03:07;;;;;;;2.88;0.90;;;;;;;;;;4991749;28;20014;-67
2023/05/16 09:05:34;;;;;;;2.33;0.95;;;;;;;;;;4992997;28;20041;-66
2023/05/16 09:08:00;;;;;;;1.80;1.00;;;;;;;;;;4992784;28;20064;-66
2023/05/16 09:10:27;;;;;;;0.95;0.75;;;;;;;;;;4992655;28;20034;-67
2023/05/16 09:12:53;;;;;;;1.33;0.90;;;;;;;;;;4992195;28;20503;-66
2023/05/16 09:15:22;;;;;;;0.82;0.80;;;;;;;;;;4992757;28;20034;-67
2023/05/16 09:17:49;;;;;;;1.23;0.90;;;;;;;;;;4992641;28;20054;-67
2023/05/16 09:20:16;;;;;;;0.80;0.70;;;;;;;;;;4992507;28;20033;-67
2023/05/16 09:22:52;;;;;;;1.52;1.00;;;;;;;;;;4991542;28;20030;-68
2023/05/16 09:25:19;;;;;;;4.07;1.05;;;;;;;;;;4993335;28;20413;-68
2023/05/16 09:27:47;;;;;;;0.93;0.75;;;;;;;;;;4992208;28;20341;-67
2023/05/16 09:30:16;;;;;;;1.05;1.00;;;;;;;;;;4990931;28;20030;-68
2023/05/16 09:32:44;;;;;;;2.20;1.02;;;;;;;;;;4991128;28;20065;-67
2023/05/16 09:35:14;;;;;;;1.73;0.80;;;;;;;;;;4992006;28;20523;-67
2023/05/16 09:37:45;;;;;;;1.10;1.00;;;;;;;;;;4992169;28;20026;-68
2023/05/16 09:40:12;;;;;;;0.70;0.70;;;;;;;;;;4992227;28;20036;-67
2023/05/16 09:42:38;;;;;;;1.83;1.10;;;;;;;;;;4991962;28;20045;-68
2023/05/16 09:45:05;;;;;;;0.82;0.82;;;;;;;;;;4992471;28;20426;-68
2023/05/16 09:47:31;;;;;;;1.05;0.95;;;;;;;;;;4991922;28;20022;-68
2023/05/16 09:49:57;;;;;;;1.20;1.10;;;;;;;;;;4992477;28;20413;-68
2023/05/16 09:52:27;;;;;;;1.08;0.80;;;;;;;;;;4992119;28;20475;-67
2023/05/16 09:54:53;;;;;;;3.08;0.70;;;;;;;;;;4990453;28;20050;-67
2023/05/16 09:57:20;;;;;;;2.35;1.30;;;;;;;;;;4990938;28;20030;-67
2023/05/16 09:59:47;;;;;;;2.00;0.80;;;;;;;;;;4991616;28;20034;-67
2023/05/16 10:02:14;;;;;;;1.25;0.82;;;;;;;;;;4991666;28;20080;-67
2023/05/16 10:04:40;;;;;;;1.20;1.10;;;;;;;;;;4991430;28;20026;-67
2023/05/16 10:07:08;;;;;;;1.90;1.42;;;;;;;;;;4991986;28;20026;-67
2023/05/16 10:09:35;;;;;;;4.18;1.10;;;;;;;;;;4991933;28;20030;-67
2023/05/16 10:12:04;;;;;;;1.10;0.82;;;;;;;;;;4991778;28;20077;-68
2023/05/16 10:14:36;;;;;;;2.35;0.80;;;;;;;;;;4991630;28;20042;-67
2023/05/16 10:17:07;;;;;;;1.10;0.90;;;;;;;;;;4991609;28;20030;-67
2023/05/16 10:19:38;;;;;;;0.88;0.70;;;;;;;;;;4991529;28;20034;-67
2023/05/16 10:22:05;;;;;;;3.45;0.85;;;;;;;;;;4991646;28;20022;-67
2023/05/16 10:24:36;;;;;;;0.68;0.68;;;;;;;;;;4991604;28;20056;-67
2023/05/16 10:27:02;;;;;;;0.77;0.70;;;;;;;;;;4991847;28;20026;-67
2023/05/16 10:29:29;;;;;;;0.50;0.50;;;;;;;;;;4991888;28;20035;-68
2023/05/16 10:31:56;;;;;;;2.45;0.70;;;;;;;;;;4990297;28;20046;-67
2023/05/16 10:34:22;;;;;;;2.15;0.68;;;;;;;;;;4991651;28;20035;-67
2023/05/16 10:36:49;;;;;;;0.60;0.60;;;;;;;;;;4991606;28;20081;-67
2023/05/16 10:39:16;;;;;;;0.90;0.77;;;;;;;;;;4991333;28;20089;-67
2023/05/16 10:41:43;;;;;;;4.38;1.13;;;;;;;;;;4991771;28;20027;-67
2023/05/16 10:44:14;;;;;;;2.58;1.00;;;;;;;;;;4990086;28;20044;-68
2023/05/16 10:46:41;;;;;;;1.70;1.08;;;;;;;;;;4991454;28;20039;-69
2023/05/16 10:49:20;;;;;;;1.17;1.00;;;;;;;;;;4991679;28;20030;-67
2023/05/16 10:51:49;;;;;;;0.73;0.73;;;;;;;;;;4972025;28;20026;-67
2023/05/16 10:54:17;;;;;;;0.82;0.80;;;;;;;;;;4971612;28;20526;-67
2023/05/16 10:56:43;;;;;;;1.27;0.90;;;;;;;;;;4972373;28;20025;-66
2023/05/16 10:59:23;;;;;;;1.75;0.60;;;;;;;;;;4971994;28;20029;-66
2023/05/16 11:01:52;;;;;;;0.70;0.70;;;;;;;;;;4971997;28;20027;-66
2023/05/16 11:04:18;;;;;;;0.75;0.75;;;;;;;;;;4971902;28;20038;-66
2023/05/16 11:06:46;;;;;;;0.95;0.80;;;;;;;;;;4970433;28;20039;-66
2023/05/16 11:09:15;;;;;;;2.38;0.95;;;;;;;;;;4971956;28;20499;-66
2023/05/16 11:12:02;;;;;;;1.95;1.08;;;;;;;;;;4971837;28;20046;-66
2023/05/16 11:14:31;;;;;;;3.38;1.00;;;;;;;;;;4976317;28;20476;-66
2023/05/16 11:17:07;;;;;;;2.80;1.00;;;;;;;;;;4976150;28;20031;-67
2023/05/16 11:19:33;;;;;;;1.55;0.80;;;;;;;;;;4976225;28;20042;-67
2023/05/16 11:22:08;;;;;;;3.15;0.90;;;;;;;;;;4976169;28;20027;-67
2023/05/16 11:24:35;;;;;;;3.10;1.00;;;;;;;;;;4975921;28;20022;-67
2023/05/16 11:27:05;;;;;;;5.55;1.05;;;;;;;;;;4997634;28;20031;-67
2023/05/16 11:29:33;;;;;;;3.28;0.90;;;;;;;;;;4994260;28;20022;-67
2023/05/16 11:32:00;;;;;;;3.60;1.00;;;;;;;;;;4994495;28;20518;-67
2023/05/16 11:34:26;;;;;;;1.20;1.10;;;;;;;;;;4993734;28;20034;-67
2023/05/16 11:36:53;;;;;;;1.58;1.17;;;;;;;;;;4994082;28;20093;-67
2023/05/16 11:39:20;;;;;;;1.00;1.00;;;;;;;;;;4994021;28;20114;-67
2023/05/16 11:41:46;;;;;;;2.40;0.90;;;;;;;;;;4992109;28;20076;-69
2023/05/16 11:44:12;;;;;;;1.35;1.00;;;;;;;;;;4993580;28;20034;-67
2023/05/16 11:46:39;;;;;;;4.10;1.20;;;;;;;;;;4992566;28;20034;-67
2023/05/16 11:49:08;;;;;;;1.52;1.13;;;;;;;;;;4994147;28;20472;-67
2023/05/16 11:51:37;;;;;;;3.72;1.40;;;;;;;;;;4993562;28;20588;-67
2023/05/16 11:54:04;;;;;;;3.83;1.30;;;;;;;;;;4993856;28;20529;-67
2023/05/16 11:56:31;;;;;;;2.13;1.20;;;;;;;;;;4993875;28;20537;-67
2023/05/16 11:58:59;;;;;;;2.33;1.20;;;;;;;;;;4994112;28;20018;-67
2023/05/16 12:01:31;;;;;;;3.72;1.10;;;;;;;;;;4993564;28;20030;-66
2023/05/16 12:03:58;;;;;;;4.15;1.00;;;;;;;;;;4992753;28;20028;-67
2023/05/16 12:06:25;;;;;;;1.58;1.45;;;;;;;;;;4993027;28;20042;-67
2023/05/16 12:08:52;;;;;;;3.08;1.42;;;;;;;;;;4993458;28;20041;-67
2023/05/16 12:11:20;;;;;;;3.15;1.40;;;;;;;;;;4993430;28;20510;-67
2023/05/16 12:13:47;;;;;;;1.15;1.05;;;;;;;;;;4991554;28;20024;-67
2023/05/16 12:16:13;;;;;;;1.50;1.38;;;;;;;;;;4988715;28;20042;-67
2023/05/16 12:18:39;;;;;;;1.48;1.38;;;;;;;;;;4991740;28;20026;-67
2023/05/16 12:21:06;;;;;;;1.38;1.27;;;;;;;;;;4992420;28;20031;-67
2023/05/16 12:23:33;;;;;;;3.10;1.42;;;;;;;;;;4993032;28;20556;-67
2023/05/16 12:26:06;;;;;;;1.52;1.40;;;;;;;;;;4992920;28;20041;-67
2023/05/16 12:28:33;;;;;;;3.72;1.50;;;;;;;;;;4993182;28;20503;-67
2023/05/16 12:30:59;;;;;;;2.17;1.77;;;;;;;;;;4993765;28;20030;-67
2023/05/16 12:33:27;;;;;;;2.08;1.88;;;;;;;;;;5007072;28;20056;-67
2023/05/16 12:35:53;;;;;;;4.63;1.60;;;;;;;;;;5012504;28;20425;-68
2023/05/16 12:38:20;;;;;;;1.40;1.30;;;;;;;;;;4995833;28;20019;-68
2023/05/16 12:40:47;;;;;;;2.40;2.03;;;;;;;;;;4992866;28;20041;-68
2023/05/16 12:43:18;;;;;;;2.97;1.83;;;;;;;;;;4993055;28;20498;-68
2023/05/16 12:45:54;;;;;;;1.70;1.60;;;;;;;;;;4992981;28;20036;-67
2023/05/16 12:48:20;;;;;;;2.60;1.90;;;;;;;;;;4993099;28;20084;-67
2023/05/16 12:50:47;;;;;;;1.90;1.70;;;;;;;;;;4994092;28;20027;-68
2023/05/16 12:53:14;;;;;;;3.22;1.70;;;;;;;;;;4992805;28;20112;-68
2023/05/16 12:55:42;;;;;;;2.53;1.75;;;;;;;;;;4992513;28;20031;-68
2023/05/16 12:58:08;;;;;;;1.67;1.58;;;;;;;;;;4992845;28;20052;-68
2023/05/16 13:00:36;;;;;;;1.90;1.60;;;;;;;;;;4992733;28;20034;-68
2023/05/16 13:03:03;;;;;;;1.77;1.67;;;;;;;;;;4991975;28;20040;-68
2023/05/16 13:05:29;;;;;;;1.73;1.58;;;;;;;;;;4992575;28;20033;-68
2023/05/16 13:07:56;;;;;;;2.53;1.55;;;;;;;;;;4992513;28;20549;-68
2023/05/16 13:10:24;;;;;;;2.45;1.65;;;;;;;;;;4992284;28;20025;-67
2023/05/16 13:12:50;;;;;;;1.67;1.50;;;;;;;;;;4992609;28;20026;-69
2023/05/16 13:15:17;;;;;;;2.67;1.98;;;;;;;;;;4992476;28;20057;-67
2023/05/16 13:17:43;;;;;;;2.28;1.67;;;;;;;;;;4990803;28;20076;-67
2023/05/16 13:20:13;;;;;;;4.43;1.67;;;;;;;;;;4991836;28;20019;-68
2023/05/16 13:22:40;;;;;;;1.93;1.50;;;;;;;;;;4991660;28;20026;-68
2023/05/16 13:25:07;;;;;;;1.35;1.25;;;;;;;;;;4991526;28;20026;-68
2023/05/16 13:27:34;;;;;;;1.60;1.50;;;;;;;;;;4990642;28;20390;-68
2023/05/16 13:30:02;;;;;;;1.73;1.50;;;;;;;;;;4990100;28;20030;-68
2023/05/16 13:32:28;;;;;;;1.63;1.50;;;;;;;;;;4991821;28;20050;-68
2023/05/16 13:34:55;;;;;;;5.50;1.40;;;;;;;;;;4991373;28;20046;-68
2023/05/16 13:37:23;;;;;;;4.38;1.50;;;;;;;;;;4991872;28;20090;-68
2023/05/16 13:39:49;;;;;;;1.42;1.30;;;;;;;;;;4992050;28;20027;-67
2023/05/16 13:42:16;;;;;;;1.40;1.30;;;;;;;;;;4991812;28;20406;-68
2023/05/16 13:44:43;;;;;;;1.27;1.15;;;;;;;;;;4991267;28;20045;-68
2023/05/16 13:47:10;;;;;;;1.67;1.35;;;;;;;;;;4991895;28;20022;-67
2023/05/16 13:49:37;;;;;;;1.42;1.20;;;;;;;;;;4991588;28;20409;-68
2023/05/16 13:52:04;;;;;;;1.50;1.40;;;;;;;;;;4991820;28;20037;-68
2023/05/16 13:54:30;;;;;;;1.65;1.40;;;;;;;;;;4991578;28;20044;-68
2023/05/16 13:56:57;;;;;;;1.60;1.23;;;;;;;;;;4991626;28;20479;-68
2023/05/16 13:59:23;;;;;;;1.63;1.35;;;;;;;;;;4991443;28;20023;-68
2023/05/16 14:01:50;;;;;;;2.60;1.00;;;;;;;;;;4991332;28;20034;-68
2023/05/16 14:04:16;;;;;;;1.20;1.10;;;;;;;;;;4991637;28;20018;-68
2023/05/16 14:06:42;;;;;;;1.23;1.10;;;;;;;;;;4991389;28;20502;-68
2023/05/16 14:09:09;;;;;;;2.58;1.00;;;;;;;;;;4990974;28;20031;-68
2023/05/16 14:11:35;;;;;;;5.07;1.20;;;;;;;;;;4991053;28;20120;-68
2023/05/16 14:14:02;;;;;;;3.75;1.08;;;;;;;;;;4991083;28;20030;-68
2023/05/16 14:16:29;;;;;;;1.35;1.00;;;;;;;;;;4991078;28;20030;-68
2023/05/16 14:18:56;;;;;;;1.05;0.95;;;;;;;;;;4991171;28;20033;-68
2023/05/16 14:21:22;;;;;;;2.85;0.90;;;;;;;;;;5014855;28;20491;-68
2023/05/16 14:23:48;;;;;;;1.35;0.88;;;;;;;;;;4972658;28;20022;-68
2023/05/16 14:26:15;;;;;;;3.53;0.82;;;;;;;;;;4977717;28;20060;-68
2023/05/16 14:28:41;;;;;;;1.20;0.80;;;;;;;;;;4991256;28;20026;-67
2023/05/16 14:31:08;;;;;;;1.90;0.85;;;;;;;;;;4987985;28;20040;-68
2023/05/16 14:33:34;;;;;;;2.05;0.70;;;;;;;;;;4990202;28;20527;-68
2023/05/16 14:36:00;;;;;;;1.40;0.75;;;;;;;;;;4990878;28;20056;-68
2023/05/16 14:38:27;;;;;;;1.40;0.90;;;;;;;;;;4988611;28;20030;-68